Terminal Aerodrome Forecast
Issued by NWS

Home | Current Version | Previous Version | Graphics & Text | Print | Product List | Glossary On
Versions: 1 2 3 4 5 6 7 8 9 10 11 12 13 14 15 16 17 18
000
FTUS43 KBIS 270524
TAFDIK
TAF
KDIK 270524Z 2706/2806 26006KT P6SM FEW080 SCT200
     FM271400 28011KT P6SM FEW060 SCT200
     FM271800 30020G28KT P6SM SCT060 BKN090
     FM272000 31021G29KT P6SM VCSH SCT070 BKN090
     FM280100 31012KT P6SM SCT070 BKN100=

USA.gov is the U.S. government's official web portal to all federal, state and local government web resources and services.